createdAt,value
2022-12-24T00:02:31.535Z,11.74
2022-12-24T00:07:32.736Z,11.77
2022-12-24T00:12:33.952Z,11.77
2022-12-24T00:17:36.145Z,11.65
2022-12-24T00:22:35.365Z,11.62
2022-12-24T00:27:36.544Z,11.83
2022-12-24T00:32:37.669Z,11.97
2022-12-24T00:37:39.873Z,11.83
2022-12-24T00:42:39.100Z,11.77
2022-12-24T00:47:40.620Z,11.71
2022-12-24T00:52:39.747Z,11.71
2022-12-24T00:57:40.927Z,11.78
2022-12-24T01:02:44.470Z,11.87
2022-12-24T01:07:41.863Z,11.94
2022-12-24T01:12:43.024Z,11.83
2022-12-24T01:17:44.226Z,11.80
2022-12-24T01:22:45.373Z,11.97
2022-12-24T01:27:46.583Z,12.04
2022-12-24T01:32:48.774Z,11.99
2022-12-24T01:37:47.981Z,11.89
2022-12-24T01:42:50.202Z,11.74
2022-12-24T01:47:51.352Z,11.53
2022-12-24T01:52:50.482Z,11.36
2022-12-24T01:57:51.630Z,11.44
2022-12-24T02:02:53.290Z,11.43
2022-12-24T02:07:52.552Z,11.29
2022-12-24T02:12:53.727Z,11.38
2022-12-24T02:17:54.877Z,11.41
2022-12-24T02:22:56.092Z,11.46
2022-12-24T02:27:57.250Z,11.57
2022-12-24T02:33:14.418Z,11.62
2022-12-24T02:37:59.635Z,11.72
2022-12-24T02:43:00.809Z,11.80
2022-12-24T02:48:01.984Z,11.87
2022-12-24T02:53:03.180Z,11.72
2022-12-24T02:58:04.355Z,11.96
2022-12-24T03:03:05.971Z,12.05
2022-12-24T03:08:06.228Z,11.82
2022-12-24T03:13:06.386Z,11.68
2022-12-24T03:18:05.608Z,11.50
2022-12-24T03:23:06.771Z,11.50
2022-12-24T03:28:08.946Z,11.87
2022-12-24T03:33:08.162Z,11.62
2022-12-24T03:38:09.371Z,11.75
2022-12-24T03:43:10.592Z,11.77
2022-12-24T03:48:11.790Z,11.74
2022-12-24T03:53:12.953Z,11.65
2022-12-24T03:58:14.156Z,11.43
2022-12-24T04:03:15.468Z,11.19
2022-12-24T04:08:16.744Z,10.86
2022-12-24T04:13:17.879Z,10.83
2022-12-24T04:18:19.132Z,10.91
2022-12-24T04:23:21.282Z,10.89
2022-12-24T04:28:20.501Z,10.83
2022-12-24T04:33:21.657Z,10.56
2022-12-24T04:38:22.744Z,10.51
2022-12-24T04:43:22.910Z,10.59
2022-12-24T04:48:23.132Z,10.66
2022-12-24T04:53:24.361Z,10.73
2022-12-24T04:58:25.530Z,10.62
2022-12-24T05:03:26.786Z,10.62
2022-12-24T05:08:27.933Z,10.63
2022-12-24T05:13:37.710Z,10.46
2022-12-24T05:18:29.120Z,10.28
2022-12-24T05:23:31.377Z,10.34
2022-12-24T05:28:30.516Z,10.30
2022-12-24T05:33:31.709Z,10.22
2022-12-24T05:38:32.924Z,10.01
2022-12-24T05:43:34.089Z,9.89
2022-12-24T05:48:35.317Z,9.82
2022-12-24T05:53:36.560Z,9.78
2022-12-24T05:58:37.813Z,9.68
2022-12-24T06:03:39.007Z,9.60
2022-12-24T06:08:40.172Z,9.46
2022-12-24T06:13:41.338Z,9.43
2022-12-24T06:18:42.536Z,9.28
2022-12-24T06:23:43.687Z,9.10
2022-12-24T06:28:44.898Z,8.91
2022-12-24T06:33:47.200Z,8.86
2022-12-24T06:38:46.475Z,8.88
2022-12-24T06:43:47.622Z,8.97
2022-12-24T06:48:48.820Z,9.09
2022-12-24T06:53:50.040Z,8.83
2022-12-24T06:58:51.249Z,8.93
2022-12-24T07:03:52.457Z,8.68
2022-12-24T07:08:53.642Z,8.73
2022-12-24T07:13:54.893Z,8.72
2022-12-24T07:18:56.196Z,8.79
2022-12-24T07:23:57.436Z,8.87
2022-12-24T07:28:58.659Z,8.90
2022-12-24T07:33:59.812Z,8.75
2022-12-24T07:39:01.073Z,8.84
2022-12-24T07:44:02.260Z,8.90
2022-12-24T07:49:03.497Z,8.93
2022-12-24T07:54:04.680Z,8.97
2022-12-24T07:59:05.849Z,8.91
2022-12-24T08:04:07.073Z,9.02
2022-12-24T08:09:08.269Z,8.87
2022-12-24T08:14:09.445Z,8.72
2022-12-24T08:19:10.817Z,8.81
2022-12-24T08:24:12.060Z,8.86
2022-12-24T08:29:13.270Z,8.91
2022-12-24T08:34:14.459Z,8.91
2022-12-24T08:39:15.648Z,8.88
2022-12-24T08:44:17.880Z,8.90
2022-12-24T08:49:17.025Z,8.97
2022-12-24T08:54:18.210Z,9.01
2022-12-24T08:59:19.408Z,9.09
2022-12-24T09:04:20.600Z,9.06
2022-12-24T09:09:21.727Z,9.04
2022-12-24T09:14:22.863Z,9.09
2022-12-24T09:19:24.034Z,9.15
2022-12-24T09:24:25.215Z,9.21
2022-12-24T09:29:26.498Z,9.25
2022-12-24T09:34:30.692Z,9.30
2022-12-24T09:39:28.053Z,9.31
2022-12-24T09:44:29.231Z,9.35
2022-12-24T09:49:30.474Z,9.34
2022-12-24T09:54:31.638Z,9.35
2022-12-24T09:59:32.834Z,9.43
2022-12-24T10:04:34.048Z,9.46
2022-12-24T10:09:35.318Z,9.52
2022-12-24T10:14:36.511Z,9.60
2022-12-24T10:19:37.689Z,9.60
2022-12-24T10:24:39.814Z,9.67
2022-12-24T10:29:38.448Z,9.76
2022-12-24T10:34:39.589Z,9.73
2022-12-24T10:39:41.710Z,10.01
2022-12-24T10:44:42.840Z,10.14
2022-12-24T10:49:41.974Z,10.07
2022-12-24T10:54:44.160Z,10.17
2022-12-24T10:59:43.305Z,10.09
2022-12-24T11:04:44.431Z,9.94
2022-12-24T11:09:45.573Z,10.01
2022-12-24T11:14:46.904Z,9.97
2022-12-24T11:19:47.991Z,9.97
2022-12-24T11:24:50.443Z,10.01
2022-12-24T11:29:49.675Z,9.93
2022-12-24T11:34:50.807Z,9.93
2022-12-24T11:39:51.950Z,10.04
2022-12-24T11:44:53.098Z,10.10
2022-12-24T11:49:59.267Z,10.21
2022-12-24T11:54:54.235Z,10.15
2022-12-24T11:59:55.445Z,9.94
2022-12-24T12:04:56.616Z,9.64
2022-12-24T12:09:57.796Z,9.53
2022-12-24T12:14:58.967Z,9.35
2022-12-24T12:20:04.036Z,9.45
2022-12-24T12:25:02.183Z,9.50
2022-12-24T12:30:45.281Z,9.88
2022-12-24T12:35:02.449Z,9.89
2022-12-24T12:40:03.630Z,9.86
2022-12-24T12:45:04.775Z,9.94
2022-12-24T12:50:05.895Z,10.32
2022-12-24T12:55:10.919Z,10.43
2022-12-24T13:00:08.019Z,10.09
2022-12-24T13:05:09.223Z,9.83
2022-12-24T13:10:10.505Z,9.99
2022-12-24T13:15:12.695Z,10.28
2022-12-24T13:20:12.913Z,10.43
2022-12-24T13:25:12.031Z,10.53
2022-12-24T13:30:13.223Z,10.43
2022-12-24T13:35:15.361Z,10.22
2022-12-24T13:40:14.469Z,10.21
2022-12-24T13:45:16.568Z,10.15
2022-12-24T13:50:15.727Z,10.14
2022-12-24T13:55:16.884Z,10.03
2022-12-24T14:00:18.025Z,9.86
2022-12-24T14:05:21.720Z,9.68
2022-12-24T14:10:19.169Z,9.60
2022-12-24T14:15:21.275Z,9.61
2022-12-24T14:20:20.374Z,9.45
2022-12-24T14:25:21.489Z,9.30
2022-12-24T14:30:23.707Z,9.34
2022-12-24T14:35:23.782Z,9.45
2022-12-24T14:40:23.927Z,9.35
2022-12-24T14:45:23.084Z,9.39
2022-12-24T14:50:24.272Z,9.43
2022-12-24T14:55:25.431Z,9.40
2022-12-24T15:00:26.608Z,9.50
2022-12-24T15:05:31.696Z,9.63
2022-12-24T15:10:28.837Z,9.91
2022-12-24T15:15:29.943Z,9.96
2022-12-24T15:20:32.051Z,9.96
2022-12-24T15:25:30.223Z,9.68
2022-12-24T15:30:31.464Z,9.56
2022-12-24T15:35:32.620Z,9.34
2022-12-24T15:40:33.831Z,9.21
2022-12-24T15:45:35.941Z,9.12
2022-12-24T15:50:35.053Z,9.18
2022-12-24T15:55:37.164Z,9.23
2022-12-24T16:00:36.384Z,9.27
2022-12-24T16:05:37.542Z,9.30
2022-12-24T16:10:38.997Z,9.32
2022-12-24T16:15:40.246Z,9.31
2022-12-24T16:20:41.544Z,9.34
2022-12-24T16:25:42.802Z,9.15
2022-12-24T16:30:43.973Z,9.09
2022-12-24T16:35:45.244Z,9.01
2022-12-24T16:40:46.507Z,9.01
2022-12-24T16:45:47.807Z,9.06
2022-12-24T16:50:49.000Z,9.12
2022-12-24T16:55:51.240Z,9.13
2022-12-24T17:00:50.347Z,9.15
2022-12-24T17:05:52.502Z,9.12
2022-12-24T17:10:51.706Z,9.10
2022-12-24T17:15:52.872Z,9.15
2022-12-24T17:20:54.040Z,9.23
2022-12-24T17:25:55.203Z,9.23
2022-12-24T17:30:56.422Z,9.27
2022-12-24T17:35:57.646Z,9.25
2022-12-24T17:40:58.858Z,9.32
2022-12-24T17:46:00.135Z,9.32
2022-12-24T17:51:01.392Z,9.32
2022-12-24T17:56:02.635Z,9.39
2022-12-24T18:01:04.843Z,9.34
2022-12-24T18:06:03.974Z,9.31
2022-12-24T18:11:05.113Z,9.27
2022-12-24T18:16:06.344Z,9.23
2022-12-24T18:21:07.582Z,9.04
2022-12-24T18:26:08.853Z,8.99
2022-12-24T18:31:10.108Z,8.83
2022-12-24T18:36:11.394Z,8.72
2022-12-24T18:41:12.595Z,8.72
2022-12-24T18:46:13.816Z,8.73
2022-12-24T18:51:15.048Z,8.79
2022-12-24T18:56:16.261Z,8.75
2022-12-24T19:01:17.622Z,8.78
2022-12-24T19:06:18.885Z,8.81
2022-12-24T19:11:20.095Z,8.86
2022-12-24T19:16:21.513Z,8.93
2022-12-24T19:21:20.918Z,9.04
2022-12-24T19:26:22.094Z,9.02
2022-12-24T19:31:23.355Z,9.09
2022-12-24T19:36:24.563Z,9.12
2022-12-24T19:41:25.750Z,9.09
2022-12-24T19:46:27.003Z,9.13
2022-12-24T19:51:28.278Z,9.21
2022-12-24T19:56:29.423Z,9.24
2022-12-24T20:01:30.744Z,9.21
2022-12-24T20:06:31.993Z,9.23
2022-12-24T20:11:33.169Z,9.18
2022-12-24T20:16:33.375Z,9.18
2022-12-24T20:21:34.534Z,9.15
2022-12-24T20:26:35.686Z,9.18
2022-12-24T20:31:36.952Z,9.20
2022-12-24T20:36:38.118Z,9.21
2022-12-24T20:41:39.394Z,9.13
2022-12-24T20:46:40.584Z,9.10
2022-12-24T20:51:41.747Z,9.13
2022-12-24T20:56:42.895Z,9.13
2022-12-24T21:01:44.229Z,9.18
2022-12-24T21:06:45.473Z,9.24
2022-12-24T21:11:46.743Z,9.32
2022-12-24T21:16:48.013Z,9.34
2022-12-24T21:21:49.218Z,9.40
2022-12-24T21:26:50.447Z,9.45
2022-12-24T21:31:51.679Z,9.42
2022-12-24T21:36:52.866Z,9.30
2022-12-24T21:41:55.045Z,9.34
2022-12-24T21:46:54.218Z,9.34
2022-12-24T21:51:55.467Z,9.39
2022-12-24T21:56:56.590Z,9.40
2022-12-24T22:01:57.857Z,9.56
2022-12-24T22:06:59.189Z,9.63
2022-12-24T22:12:00.391Z,9.57
2022-12-24T22:17:01.600Z,9.57
2022-12-24T22:22:02.784Z,9.50
2022-12-24T22:27:03.936Z,9.35
2022-12-24T22:32:04.116Z,9.24
2022-12-24T22:37:05.277Z,9.30
2022-12-24T22:42:06.462Z,9.32
2022-12-24T22:47:07.675Z,9.34
2022-12-24T22:52:08.901Z,9.35
2022-12-24T22:57:10.515Z,9.31
2022-12-24T23:02:09.932Z,9.38
2022-12-24T23:07:09.243Z,9.38
2022-12-24T23:12:10.451Z,9.39
2022-12-24T23:17:11.676Z,9.40
2022-12-24T23:22:12.989Z,9.39
2022-12-24T23:27:15.253Z,9.32
2022-12-24T23:32:14.417Z,9.32
2022-12-24T23:37:15.699Z,9.35
2022-12-24T23:42:16.873Z,9.43
2022-12-24T23:47:18.039Z,9.48
2022-12-24T23:52:19.289Z,9.49
2022-12-24T23:57:20.521Z,9.57
